createdAt,value
2023-04-23T00:01:35.267Z,87.90
2023-04-23T00:04:06.815Z,87.90
2023-04-23T00:06:36.813Z,87.90
2023-04-23T00:09:07.880Z,87.90
2023-04-23T00:11:36.666Z,88.00
2023-04-23T00:14:05.378Z,88.00
2023-04-23T00:16:34.230Z,87.90
2023-04-23T00:19:02.724Z,88.00
2023-04-23T00:21:31.373Z,87.90
2023-04-23T00:24:01.031Z,87.90
2023-04-23T00:26:29.384Z,87.90
2023-04-23T00:28:57.712Z,87.90
2023-04-23T00:31:27.413Z,87.90
2023-04-23T00:33:56.212Z,87.90
2023-04-23T00:36:26.314Z,88.00
2023-04-23T00:38:55.076Z,87.90
2023-04-23T00:41:25.507Z,87.90
2023-04-23T00:43:57.437Z,88.00
2023-04-23T00:46:26.946Z,87.90
2023-04-23T00:48:56.106Z,88.00
2023-04-23T00:51:24.515Z,87.90
2023-04-23T00:53:53.521Z,87.90
2023-04-23T00:56:22.903Z,87.90
2023-04-23T00:58:53.453Z,87.90
2023-04-23T01:01:22.876Z,87.90
2023-04-23T01:03:53.318Z,87.90
2023-04-23T01:06:25.132Z,88.00
2023-04-23T01:08:53.908Z,87.90
2023-04-23T01:11:22.417Z,87.90
2023-04-23T01:13:52.186Z,87.90
2023-04-23T01:16:20.943Z,88.00
2023-04-23T01:18:49.248Z,88.00
2023-04-23T01:21:19.358Z,87.90
2023-04-23T01:23:49.101Z,88.00
2023-04-23T01:26:19.069Z,87.90
2023-04-23T01:28:48.168Z,87.80
2023-04-23T01:31:17.770Z,87.90
2023-04-23T01:33:47.106Z,87.80
2023-04-23T01:36:15.955Z,87.60
2023-04-23T01:38:44.327Z,87.30
2023-04-23T01:41:14.387Z,87.10
2023-04-23T01:43:44.810Z,87.20
2023-04-23T01:46:13.586Z,87.10
2023-04-23T01:48:42.413Z,86.80
2023-04-23T01:51:10.795Z,86.90
2023-04-23T01:53:39.120Z,86.80
2023-04-23T01:56:09.910Z,86.80
2023-04-23T01:58:39.601Z,86.60
2023-04-23T02:01:07.980Z,86.60
2023-04-23T02:03:36.543Z,86.30
2023-04-23T02:06:05.929Z,86.40
2023-04-23T02:08:34.310Z,86.40
2023-04-23T02:11:02.975Z,86.20
2023-04-23T02:13:31.266Z,86.30
2023-04-23T02:16:01.432Z,86.20
2023-04-23T02:18:29.787Z,86.20
2023-04-23T02:20:59.877Z,85.90
2023-04-23T02:23:28.744Z,86.00
2023-04-23T02:25:57.235Z,86.00
2023-04-23T02:28:25.737Z,85.90
2023-04-23T02:30:54.109Z,85.90
2023-04-23T02:33:26.787Z,85.50
2023-04-23T02:35:55.174Z,85.50
2023-04-23T02:38:23.757Z,85.70
2023-04-23T02:40:52.083Z,85.20
2023-04-23T02:43:20.329Z,85.50
2023-04-23T02:45:48.753Z,85.70
2023-04-23T02:48:18.074Z,85.70
2023-04-23T02:50:47.968Z,85.60
2023-04-23T02:53:16.405Z,85.80
2023-04-23T02:55:45.085Z,85.70
2023-04-23T02:58:13.690Z,85.70
2023-04-23T03:00:50.196Z,85.70
2023-04-23T03:03:18.853Z,85.50
2023-04-23T03:05:49.336Z,85.90
2023-04-23T03:08:17.784Z,86.00
2023-04-23T03:10:46.438Z,86.00
2023-04-23T03:13:15.343Z,85.90
2023-04-23T03:15:43.996Z,86.00
2023-04-23T03:18:12.441Z,85.90
2023-04-23T03:20:41.441Z,86.10
2023-04-23T03:23:11.333Z,86.20
2023-04-23T03:25:39.918Z,86.00
2023-04-23T03:28:08.464Z,86.10
2023-04-23T03:30:37.157Z,86.10
2023-04-23T03:33:05.805Z,86.10
2023-04-23T03:35:34.195Z,85.90
2023-04-23T03:38:05.826Z,87.30
2023-04-23T03:40:38.281Z,86.10
2023-04-23T03:43:09.048Z,86.00
2023-04-23T03:46:00.210Z,86.10
2023-04-23T03:48:30.319Z,86.00
2023-04-23T03:50:59.657Z,86.10
2023-04-23T03:53:45.672Z,86.10
2023-04-23T03:56:44.468Z,86.00
2023-04-23T03:59:34.425Z,86.00
2023-04-23T04:02:04.396Z,86.00
2023-04-23T04:04:33.427Z,86.10
2023-04-23T04:07:02.447Z,86.10
2023-04-23T04:09:31.030Z,86.20
2023-04-23T04:12:05.273Z,86.30
2023-04-23T04:14:34.051Z,86.30
2023-04-23T04:17:02.476Z,86.30
2023-04-23T04:19:31.895Z,86.30
2023-04-23T04:22:02.452Z,86.40
2023-04-23T04:24:32.470Z,86.40
2023-04-23T04:27:01.805Z,86.40
2023-04-23T04:29:33.677Z,86.50
2023-04-23T04:32:10.187Z,86.50
2023-04-23T04:34:39.598Z,86.60
2023-04-23T04:37:09.973Z,86.60
2023-04-23T04:39:39.191Z,86.60
2023-04-23T04:42:08.449Z,86.70
2023-04-23T04:44:40.129Z,86.60
2023-04-23T04:47:08.773Z,86.80
2023-04-23T04:49:38.377Z,86.70
2023-04-23T04:52:06.923Z,86.80
2023-04-23T04:54:35.581Z,86.90
2023-04-23T04:57:04.267Z,86.80
2023-04-23T04:59:32.846Z,86.80
2023-04-23T05:02:02.768Z,88.30
2023-04-23T05:04:31.482Z,87.10
2023-04-23T05:07:00.049Z,87.10
2023-04-23T05:09:28.984Z,87.10
2023-04-23T05:11:58.440Z,87.00
2023-04-23T05:14:29.950Z,87.30
2023-04-23T05:16:59.254Z,87.30
2023-04-23T05:19:29.032Z,87.60
2023-04-23T05:21:58.011Z,87.50
2023-04-23T05:24:26.870Z,87.60
2023-04-23T05:26:56.122Z,87.50
2023-04-23T05:29:26.429Z,87.60
2023-04-23T05:31:55.661Z,87.50
2023-04-23T05:34:24.360Z,87.60
2023-04-23T05:36:54.158Z,87.50
2023-04-23T05:39:22.466Z,87.50
2023-04-23T05:41:50.945Z,87.60
2023-04-23T05:44:19.200Z,87.50
2023-04-23T05:46:47.601Z,87.50
2023-04-23T05:49:16.131Z,87.60
2023-04-23T05:51:45.409Z,87.60
2023-04-23T05:54:16.350Z,87.50
2023-04-23T05:56:44.671Z,87.50
2023-04-23T05:59:13.472Z,87.60
2023-04-23T06:01:41.837Z,87.60
2023-04-23T06:04:10.485Z,87.50
2023-04-23T06:06:39.274Z,87.50
2023-04-23T06:09:08.544Z,87.60
2023-04-23T06:11:38.313Z,87.50
2023-04-23T06:14:06.778Z,87.50
2023-04-23T06:16:35.183Z,87.50
2023-04-23T06:19:04.323Z,87.50
2023-04-23T06:21:32.759Z,87.50
2023-04-23T06:24:01.314Z,87.60
2023-04-23T06:26:31.143Z,87.50
2023-04-23T06:29:07.846Z,87.60
2023-04-23T06:32:02.818Z,87.50
2023-04-23T06:34:31.179Z,87.50
2023-04-23T06:36:59.645Z,87.50
2023-04-23T06:39:31.114Z,87.60
2023-04-23T06:41:59.373Z,87.60
2023-04-23T06:44:37.997Z,87.50
2023-04-23T06:47:06.942Z,87.50
2023-04-23T06:49:35.478Z,87.60
2023-04-23T06:52:04.104Z,87.40
2023-04-23T06:54:32.600Z,87.40
2023-04-23T06:57:01.448Z,87.50
2023-04-23T06:59:29.854Z,87.50
2023-04-23T07:02:01.332Z,87.70
2023-04-23T07:04:29.912Z,88.10
2023-04-23T07:06:58.390Z,87.80
2023-04-23T07:09:26.764Z,87.60
2023-04-23T07:11:55.076Z,87.80
2023-04-23T07:14:23.435Z,87.80
2023-04-23T07:16:51.868Z,88.20
2023-04-23T07:19:21.621Z,87.50
2023-04-23T07:21:50.004Z,87.50
2023-04-23T07:24:18.277Z,87.40
2023-04-23T07:26:46.689Z,87.50
2023-04-23T07:29:15.572Z,87.50
2023-04-23T07:31:44.381Z,87.50
2023-04-23T07:34:13.079Z,87.40
2023-04-23T07:36:42.704Z,87.50
2023-04-23T07:39:11.291Z,87.60
2023-04-23T07:41:39.685Z,87.50
2023-04-23T07:44:08.344Z,87.60
2023-04-23T07:46:37.519Z,87.50
2023-04-23T07:49:07.495Z,87.60
2023-04-23T07:51:36.690Z,87.50
2023-04-23T07:54:07.572Z,87.50
2023-04-23T07:56:37.205Z,87.20
2023-04-23T07:59:06.405Z,87.00
2023-04-23T08:01:35.810Z,86.80
2023-04-23T08:04:07.068Z,86.80
2023-04-23T08:06:36.727Z,86.70
2023-04-23T08:09:07.065Z,86.60
2023-04-23T08:11:36.910Z,87.90
2023-04-23T08:14:06.309Z,86.60
2023-04-23T08:16:38.599Z,86.50
2023-04-23T08:19:08.525Z,86.30
2023-04-23T08:21:38.112Z,86.30
2023-04-23T08:24:08.979Z,86.10
2023-04-23T08:26:37.704Z,86.20
2023-04-23T08:29:08.202Z,86.00
2023-04-23T08:31:38.058Z,85.90
2023-04-23T08:34:07.105Z,85.80
2023-04-23T08:36:35.677Z,85.70
2023-04-23T08:39:05.272Z,85.60
2023-04-23T08:41:40.210Z,85.60
2023-04-23T08:44:14.620Z,85.60
2023-04-23T08:46:45.498Z,85.40
2023-04-23T08:49:17.072Z,85.40
2023-04-23T08:51:50.182Z,85.40
2023-04-23T08:54:23.592Z,85.30
2023-04-23T08:56:57.707Z,85.30
2023-04-23T08:59:29.481Z,85.20
2023-04-23T09:02:01.063Z,85.20
2023-04-23T09:04:31.702Z,85.30
2023-04-23T09:07:00.363Z,85.30
2023-04-23T09:09:30.815Z,85.20
2023-04-23T09:12:01.358Z,85.20
2023-04-23T09:14:30.100Z,85.30
2023-04-23T09:16:59.592Z,85.20
2023-04-23T09:19:30.638Z,85.20
2023-04-23T09:22:01.175Z,85.10
2023-04-23T09:24:30.429Z,85.10
2023-04-23T09:27:01.523Z,85.20
2023-04-23T09:29:31.533Z,85.30
2023-04-23T09:32:10.595Z,85.30
2023-04-23T09:34:39.410Z,85.40
2023-04-23T09:37:11.049Z,85.20
2023-04-23T09:39:41.420Z,85.10
2023-04-23T09:42:13.569Z,85.30
2023-04-23T09:44:42.135Z,85.20
2023-04-23T09:47:12.346Z,85.20
2023-04-23T09:49:49.032Z,85.20
2023-04-23T11:25:35.226Z,83.50
2023-04-23T11:28:10.476Z,83.70
2023-04-23T18:55:53.530Z,86.60
2023-04-23T18:58:23.383Z,86.60
2023-04-23T19:00:53.584Z,86.80
2023-04-23T19:03:26.820Z,86.40
2023-04-23T19:05:56.657Z,86.50
2023-04-23T19:08:28.987Z,86.60
2023-04-23T19:10:59.306Z,86.50
2023-04-23T19:13:27.974Z,86.50
2023-04-23T19:15:57.254Z,86.60
2023-04-23T19:18:25.922Z,86.00
2023-04-23T19:20:54.669Z,86.10
2023-04-23T19:23:23.606Z,86.00
2023-04-23T19:25:52.063Z,86.00
2023-04-23T19:28:24.503Z,85.70
2023-04-23T19:30:53.600Z,85.70
2023-04-23T19:33:23.802Z,85.60
2023-04-23T19:35:52.619Z,85.70
2023-04-23T19:38:21.349Z,85.50
2023-04-23T19:40:50.317Z,85.30
2023-04-23T19:43:19.946Z,85.00
2023-04-23T19:45:49.963Z,85.30
2023-04-23T19:48:19.478Z,85.20
2023-04-23T19:50:48.665Z,84.90
2023-04-23T19:53:17.115Z,84.90
2023-04-23T19:55:47.856Z,85.00
2023-04-23T19:58:18.271Z,85.20
2023-04-23T20:00:47.525Z,85.00
2023-04-23T20:03:17.480Z,84.90
2023-04-23T20:05:46.332Z,84.60
2023-04-23T20:08:25.895Z,84.70
2023-04-23T20:10:54.728Z,84.50
2023-04-23T20:13:24.014Z,84.20
2023-04-23T20:15:53.789Z,84.20
2023-04-23T20:18:25.635Z,83.90
2023-04-23T20:20:54.571Z,84.00
2023-04-23T20:23:23.386Z,83.90
2023-04-23T20:25:52.291Z,83.90
2023-04-23T20:28:20.900Z,83.70
2023-04-23T20:30:51.170Z,84.00
2023-04-23T20:33:20.134Z,83.50
2023-04-23T20:35:51.568Z,83.50
2023-04-23T20:38:21.143Z,83.30
2023-04-23T20:40:50.211Z,83.30
2023-04-23T20:43:19.090Z,83.50
2023-04-23T20:45:47.806Z,83.00
2023-04-23T20:48:16.777Z,83.00
2023-04-23T20:50:45.518Z,83.10
2023-04-23T20:53:15.513Z,83.10
2023-04-23T20:55:44.014Z,83.20
2023-04-23T20:58:12.600Z,82.90
2023-04-23T21:00:41.597Z,82.60
2023-04-23T21:03:10.384Z,82.50
2023-04-23T21:05:40.566Z,82.80
2023-04-23T21:08:10.065Z,82.40
2023-04-23T21:10:41.049Z,82.00
2023-04-23T21:13:12.394Z,82.80
2023-04-23T21:15:41.549Z,82.10
2023-04-23T21:18:11.812Z,82.30
2023-04-23T21:20:40.797Z,82.40
2023-04-23T21:23:13.459Z,82.10
